M I D A S
Marine Information and Data Acquisition System
Tripno 777 of the Zeeleeuw from 2004-06-01 07:27:25 to 2004-06-01 14:19:10
Back to CruiseResearch ActivitiesStationsMapUnderway DataData graphs

EquipmentUnitsComments
TimeDGPSUTC
LatitudeDGPSDM.mWGS84
LongitudeDGPSDM.mWGS84
SpeedMeteo Stationm/sRelative wind speed
DirectionMeteo StationdegRelative wind direction
TemperatureMeteo Stationdeg CelciusAir temperature
PressureMeteo StationPaAtmospheric pressure
HumidityMeteo Station%Relative humidity
Missing or incorrect values are displayed as -999
Metereological data collected by the RV Zeeleeuw from 2004-06-01 07:27:25 to 2004-06-01 14:19:10
Time Latitude Longitude Speed Direction Temperature Pressure Humidity
2004-06-01 07:28 51°13.582 2°56.119 3.3 31 14.8 101460 80
2004-06-01 07:29 51°13.544 2°56.186 3.1 7 14.8 101460 80
2004-06-01 07:30 51°13.535 2°56.266 2.6 87 14.9 101460 80
2004-06-01 07:31 51°13.542 2°56.282 3.5 140 14.9 101460 80
2004-06-01 07:32 51°13.525 2°56.27 1.5 170 14.8 101460 80
2004-06-01 07:33 51°13.517 2°56.274 2.2 172 14.9 101460 80
2004-06-01 07:34 51°13.545 2°56.225 0.6 268 14.9 101460 80
2004-06-01 07:35 51°13.56 2°56.155 3.3 261 15 101460 80
2004-06-01 07:36 51°13.576 2°56.095 0.7 258 14.9 101460 79
2004-06-01 07:37 51°13.594 2°56.051 2.7 231 15 101460 79
2004-06-01 07:38 51°13.604 2°56.027 3 211 15 101460 79
2004-06-01 07:39 51°13.611 2°56.012 2.4 235 15 101460 79
2004-06-01 07:40 51°13.614 2°56.003 2.5 181 15.2 101460 79
2004-06-01 07:41 51°13.62 2°55.987 1.1 189 15.3 101460 79
2004-06-01 07:42 51°13.655 2°55.903 2.9 262 15.3 101460 78
2004-06-01 07:43 51°13.698 2°55.808 1 318 15.3 101460 77
2004-06-01 07:44 51°13.784 2°55.677 1.2 326 15.3 101460 78
2004-06-01 07:45 51°13.913 2°55.592 1.1 70 15.2 101460 77
2004-06-01 07:46 51°14.049 2°55.515 0.3 27 15.2 101460 77
2004-06-01 07:47 51°14.182 2°55.369 2.8 327 15.2 101450 78
2004-06-01 07:48 51°14.304 2°55.168 3.8 324 15.2 101450 78
2004-06-01 07:49 51°14.431 2°54.948 3.4 339 15.2 101450 78
2004-06-01 07:50 51°14.465 2°54.61 8.5 336 15.1 101430 78
2004-06-01 07:51 51°14.372 2°54.287 9.9 342 15.1 101430 78
2004-06-01 07:52 51°14.255 2°53.961 10 333 15 101430 78
2004-06-01 07:53 51°14.145 2°53.632 9.4 343 15 101430 78
2004-06-01 07:54 51°14.035 2°53.301 9 345 15 101430 79
2004-06-01 07:55 51°13.918 2°52.975 9.5 344 15 101430 79
2004-06-01 07:56 51°13.793 2°52.663 9.9 341 15 101420 79
2004-06-01 07:57 51°13.667 2°52.339 8.9 343 15.1 101430 79
2004-06-01 07:58 51°13.547 2°52.013 9.9 329 15.1 101420 79
2004-06-01 07:59 51°13.428 2°51.687 9.6 332 15.1 101420 78
2004-06-01 08:00 51°13.311 2°51.367 10 340 15.1 101420 79
2004-06-01 08:01 51°13.193 2°51.043 10.1 338 15.1 101420 78
2004-06-01 08:02 51°13.073 2°50.72 9.4 339 15.2 101420 78
2004-06-01 08:03 51°12.95 2°50.401 9.4 340 15.1 101420 78
2004-06-01 08:04 51°12.819 2°50.091 10.3 332 15.2 101410 78
2004-06-01 08:05 51°12.681 2°49.789 10.9 337 15.2 101410 78
2004-06-01 08:06 51°12.56 2°49.47 11.3 337 15.2 101400 78
2004-06-01 08:07 51°12.441 2°49.151 9.9 345 15.2 101410 78
2004-06-01 08:08 51°12.322 2°48.835 10.2 337 15.2 101410 77
2004-06-01 08:09 51°12.204 2°48.519 11.4 332 15.3 101420 78
2004-06-01 08:10 51°12.084 2°48.198 8.7 344 15.2 101410 77
2004-06-01 08:11 51°11.968 2°47.89 10.3 332 15.3 101410 77
2004-06-01 08:12 51°11.858 2°47.564 9.8 333 15.3 101400 77
2004-06-01 08:13 51°11.752 2°47.242 9.3 331 15.3 101410 76
2004-06-01 08:14 51°11.645 2°46.921 11.1 334 15.3 101400 77
2004-06-01 08:15 51°11.542 2°46.605 9.9 327 15.3 101390 77
2004-06-01 08:16 51°11.446 2°46.272 11.7 325 15.3 101390 77
2004-06-01 08:17 51°11.361 2°45.944 9.7 321 15.3 101390 76
2004-06-01 08:18 51°11.259 2°45.624 10.8 335 15.3 101380 76
2004-06-01 08:19 51°11.146 2°45.315 11.5 321 15.4 101370 77
2004-06-01 08:20 51°11.043 2°44.994 10.7 321 15.3 101370 77
2004-06-01 08:21 51°10.961 2°44.67 7.7 315 15.3 101370 76
2004-06-01 08:22 51°10.884 2°44.336 10.1 317 15.3 101370 77
2004-06-01 08:23 51°10.808 2°44.003 9.3 316 15.3 101370 77
2004-06-01 08:24 51°10.732 2°43.671 9.8 322 15.3 101370 77
2004-06-01 08:25 51°10.656 2°43.341 10.1 229 15.3 101360 76
2004-06-01 08:26 51°10.58 2°43.012 9.8 325 15.3 101370 76
2004-06-01 08:27 51°10.505 2°42.684 10.6 319 15.3 101360 77
2004-06-01 08:28 51°10.429 2°42.352 11.4 318 15.3 101360 76
2004-06-01 08:29 51°10.355 2°42.031 9.6 317 15.2 101360 76
2004-06-01 08:30 51°10.28 2°41.706 11.3 324 15.3 101370 77
2004-06-01 08:31 51°10.205 2°41.377 10.1 318 15.3 101370 77
2004-06-01 08:32 51°10.133 2°41.059 9.9 43 15.3 101370 77
2004-06-01 08:33 51°10.06 2°40.737 11.1 314 15.3 101370 77
2004-06-01 08:34 51°9.987 2°40.409 10.7 313 15.2 101370 77
2004-06-01 08:35 51°9.915 2°40.091 8.9 309 15.2 101370 78
2004-06-01 08:36 51°9.843 2°39.765 9.5 317 15.2 101370 78
2004-06-01 08:37 51°9.769 2°39.436 9.6 316 15.2 101360 78
2004-06-01 08:38 51°9.699 2°39.118 10.7 322 15.3 101370 78
2004-06-01 08:39 51°9.628 2°38.795 9.7 319 15.3 101350 79
2004-06-01 08:40 51°9.558 2°38.474 9.8 316 15.3 101350 79
2004-06-01 08:41 51°9.488 2°38.154 10.9 43 15.2 101350 79
2004-06-01 08:42 51°9.417 2°37.836 11 320 15.2 101340 79
2004-06-01 08:43 51°9.345 2°37.523 11.3 312 15.2 101340 78
2004-06-01 08:44 51°9.258 2°37.319 9.8 297 15.2 101350 78
2004-06-01 08:45 51°9.207 2°37.223 9.1 298 15.2 101350 77
2004-06-01 08:46 51°9.17 2°37.186 8 293 15.3 101350 77
2004-06-01 08:47 51°9.161 2°37.172 8.9 297 15.3 101360 77
2004-06-01 08:48 51°9.161 2°37.174 7.2 290 15.3 101360 78
2004-06-01 08:49 51°9.163 2°37.182 9.3 291 15.3 101360 77
2004-06-01 08:50 51°9.169 2°37.192 7 275 15.4 101360 78
2004-06-01 08:51 51°9.176 2°37.205 9.8 292 15.4 101360 77
2004-06-01 08:52 51°9.185 2°37.219 8.9 283 15.4 101360 77
2004-06-01 08:53 51°9.195 2°37.235 7.7 279 15.3 101360 77
2004-06-01 08:54 51°9.206 2°37.252 8.2 264 15.4 101360 78
2004-06-01 08:55 51°9.216 2°37.271 7.9 272 15.4 101360 78
2004-06-01 08:56 51°9.227 2°37.291 8.6 275 15.4 101360 78
2004-06-01 08:57 51°9.24 2°37.311 8.5 269 15.3 101360 78
2004-06-01 08:58 51°9.252 2°37.331 9.9 268 15.3 101360 77
2004-06-01 08:59 51°9.265 2°37.352 6.9 275 15.3 101360 77
2004-06-01 09:00 51°9.277 2°37.374 8.4 268 15.4 101360 77
2004-06-01 09:01 51°9.29 2°37.395 8.9 271 15.4 101360 78
2004-06-01 09:02 51°9.303 2°37.418 10.3 264 15.4 101360 79
2004-06-01 09:03 51°9.315 2°37.437 10.1 273 15.4 101360 78
2004-06-01 09:04 51°9.325 2°37.449 9.3 279 15.4 101360 78
2004-06-01 09:05 51°9.331 2°37.458 8.5 288 15.4 101350 78
2004-06-01 09:06 51°9.336 2°37.464 9.6 292 15.4 101350 77
2004-06-01 09:07 51°9.337 2°37.471 7.9 296 15.5 101350 78
2004-06-01 09:08 51°9.337 2°37.47 8.1 268 15.5 101350 78
2004-06-01 09:09 51°9.323 2°37.406 7 282 15.6 101350 78
2004-06-01 09:10 51°9.314 2°37.319 7.5 284 15.6 101350 78
2004-06-01 09:11 51°9.325 2°37.234 7 265 15.7 101350 78
2004-06-01 09:12 51°9.349 2°37.147 4.7 254 15.7 101360 78
2004-06-01 09:13 51°9.388 2°37.075 5.9 227 15.6 101360 77
2004-06-01 09:14 51°9.435 2°37.021 5.1 226 15.5 101360 76
2004-06-01 09:15 51°9.475 2°36.974 5 256 15.6 101360 78
2004-06-01 09:16 51°9.502 2°36.927 5.9 252 15.5 101350 78
2004-06-01 09:17 51°9.522 2°36.878 6.3 258 15.4 101350 78
2004-06-01 09:18 51°9.535 2°36.831 5.7 260 15.4 101350 77
2004-06-01 09:19 51°9.55 2°36.783 7.5 262 15.4 101350 78
2004-06-01 09:20 51°9.565 2°36.736 5.8 258 15.4 101350 79
2004-06-01 09:21 51°9.583 2°36.689 5.3 254 15.4 101350 79
2004-06-01 09:22 51°9.603 2°36.642 5 257 15.3 101350 79
2004-06-01 09:23 51°9.624 2°36.597 6 254 15.3 101350 78
2004-06-01 09:24 51°9.646 2°36.554 6.3 245 15.3 101350 78
2004-06-01 09:25 51°9.665 2°36.51 6.3 258 15.3 101350 78
2004-06-01 09:26 51°9.676 2°36.462 9.1 274 15.3 101350 78
2004-06-01 09:27 51°9.684 2°36.392 8.5 272 15.3 101350 78
2004-06-01 09:28 51°9.694 2°36.32 7.6 260 15.3 101350 78
2004-06-01 09:29 51°9.702 2°36.25 8.7 263 15.3 101360 78
2004-06-01 09:30 51°9.709 2°36.179 8.1 276 15.4 101350 78
2004-06-01 09:31 51°9.718 2°36.109 5.5 256 15.4 101360 78
2004-06-01 09:32 51°9.74 2°36.04 5 251 15.4 101360 78
2004-06-01 09:33 51°9.777 2°35.976 5.5 224 15.3 101360 77
2004-06-01 09:34 51°9.833 2°35.926 5.3 218 15.3 101360 77
2004-06-01 09:35 51°9.896 2°35.886 4.3 209 15.3 101360 77
2004-06-01 09:36 51°9.966 2°35.856 3.6 200 15.4 101360 78
2004-06-01 09:37 51°10.03 2°35.844 3.5 171 15.5 101360 79
2004-06-01 09:38 51°10.087 2°35.849 3.8 201 15.7 101360 78
2004-06-01 09:39 51°10.127 2°35.871 7.7 209 15.9 101360 76
2004-06-01 09:40 51°10.16 2°35.896 7 221 15.7 101360 76
2004-06-01 09:41 51°10.192 2°35.917 7.1 229 15.5 101360 77
2004-06-01 09:42 51°10.223 2°35.939 6.8 238 15.4 101350 77
2004-06-01 09:43 51°10.256 2°35.915 4.8 249 15.4 101360 78
2004-06-01 09:44 51°10.371 2°35.776 2 220 15.4 101370 78
2004-06-01 09:45 51°10.581 2°35.765 4.8 94 15.5 101360 78
2004-06-01 09:46 51°10.807 2°35.945 6.8 79 15.4 101360 78
2004-06-01 09:47 51°11.05 2°36.177 6.4 74 15.4 101360 79
2004-06-01 09:48 51°11.259 2°36.38 6.5 80 15.4 101360 79
2004-06-01 09:49 51°11.467 2°36.588 6.4 80 15.3 101360 79
2004-06-01 09:50 51°11.684 2°36.806 5.6 77 15.3 101360 79
2004-06-01 09:51 51°11.893 2°37.018 6.1 68 15.4 101360 80
2004-06-01 09:52 51°12.102 2°37.233 6 71 15.3 101370 80
2004-06-01 09:53 51°12.311 2°37.448 5.9 71 15.3 101360 80
2004-06-01 09:54 51°12.534 2°37.677 6.9 67 15.3 101370 81
2004-06-01 09:55 51°12.748 2°37.897 7 84 15.3 101370 81
2004-06-01 09:56 51°12.955 2°38.108 6.2 69 15.3 101380 80
2004-06-01 09:57 51°13.162 2°38.319 6.5 81 15.4 101380 80
2004-06-01 09:59 51°13.383 2°38.543 5.1 77 15.4 101370 79
2004-06-01 09:59 51°13.598 2°38.709 5.9 72 15.4 101380 80
2004-06-01 10:00 51°13.827 2°38.857 4.8 69 15.4 101380 79
2004-06-01 10:01 51°14.055 2°39.007 5.2 68 15.4 101380 79
2004-06-01 10:02 51°14.286 2°39.066 0.8 73 15.4 101380 79
2004-06-01 10:03 51°14.485 2°38.897 1.9 327 15.4 101390 79
2004-06-01 10:04 51°14.687 2°38.709 2.7 337 15.6 101390 79
2004-06-01 10:05 51°14.887 2°38.524 2.4 330 15.7 101390 79
2004-06-01 10:06 51°15.087 2°38.344 1.7 318 15.7 101390 78
2004-06-01 10:07 51°15.286 2°38.169 2.3 328 15.8 101400 78
2004-06-01 10:08 51°15.479 2°38 2.2 324 15.9 101400 77
2004-06-01 10:09 51°15.68 2°37.827 2.7 338 16 101400 77
2004-06-01 10:10 51°15.876 2°37.655 3 337 16 101400 77
2004-06-01 10:11 51°16.074 2°37.482 2.6 335 16 101400 77
2004-06-01 10:12 51°16.279 2°37.307 2.5 336 16.1 101400 77
2004-06-01 10:13 51°16.491 2°37.13 2.7 340 16 101400 77
2004-06-01 10:14 51°16.703 2°36.948 2.6 339 16 101400 77
2004-06-01 10:15 51°16.917 2°36.767 2.7 334 16 101400 77
2004-06-01 10:16 51°17.126 2°36.585 2.7 325 16 101400 77
2004-06-01 10:17 51°17.329 2°36.4 2.4 335 16 101400 77
2004-06-01 10:18 51°17.529 2°36.218 2.6 327 16.1 101400 77
2004-06-01 10:19 51°17.729 2°36.036 2.8 337 16.1 101410 77
2004-06-01 10:20 51°17.923 2°35.861 2.8 326 16.1 101410 77
2004-06-01 10:21 51°18.119 2°35.679 3.3 342 16.1 101410 77
2004-06-01 10:22 51°18.32 2°35.514 3.4 345 16.1 101410 77
2004-06-01 10:23 51°18.53 2°35.349 3.6 350 16 101410 77
2004-06-01 10:24 51°18.745 2°35.179 3.1 352 16 101410 78
2004-06-01 10:25 51°18.957 2°35.009 3.7 344 16 101410 78
2004-06-01 10:26 51°19.165 2°34.835 3.4 337 15.9 101410 78
2004-06-01 10:27 51°19.371 2°34.662 3.3 349 15.9 101410 79
2004-06-01 10:28 51°19.577 2°34.492 3.5 351 15.8 101410 79
2004-06-01 10:29 51°19.783 2°34.323 3.4 347 15.8 101410 79
2004-06-01 10:30 51°19.999 2°34.146 4.7 351 15.7 101410 79
2004-06-01 10:31 51°20.212 2°33.971 4.5 352 15.7 101410 80
2004-06-01 10:32 51°20.425 2°33.794 4.1 349 15.7 101410 80
2004-06-01 10:33 51°20.628 2°33.614 4.4 350 15.7 101410 80
2004-06-01 10:34 51°20.838 2°33.434 4.7 350 15.6 101410 81
2004-06-01 10:35 51°21.056 2°33.248 4.6 350 15.6 101410 81
2004-06-01 10:36 51°21.219 2°32.988 5.6 342 15.5 101400 81
2004-06-01 10:37 51°21.369 2°32.716 5.4 340 15.6 101410 81
2004-06-01 10:38 51°21.526 2°32.456 5.1 339 15.5 101410 81
2004-06-01 10:39 51°21.681 2°32.197 4.6 339 15.5 101420 81
2004-06-01 10:40 51°21.841 2°31.944 4.6 345 15.5 101410 81
2004-06-01 10:41 51°22.005 2°31.696 4.1 344 15.5 101410 81
2004-06-01 10:42 51°22.176 2°31.462 4.9 357 15.5 101410 81
2004-06-01 10:43 51°22.379 2°31.276 4.6 356 15.5 101410 81
2004-06-01 10:44 51°22.576 2°31.08 5.1 359 15.5 101420 81
2004-06-01 10:45 51°22.762 2°30.862 5.1 355 15.4 101410 81
2004-06-01 10:46 51°22.934 2°30.623 5.3 354 15.4 101420 81
2004-06-01 10:47 51°23.117 2°30.407 4.7   15.4 101420 82
2004-06-01 10:48 51°23.334 2°30.23 4.7   15.4 101410 82
2004-06-01 10:49 51°23.54 2°30.058 4.7 358 15.4 101420 82
2004-06-01 10:50 51°23.763 2°29.874 4.4 360 15.5 101420 81
2004-06-01 10:51 51°23.973 2°29.695 4.8 6 15.5 101410 81
2004-06-01 10:52 51°24.203 2°29.538 5.3 10 15.6 101410 81
2004-06-01 10:53 51°24.431 2°29.388 6 14 15.6 101420 81
2004-06-01 10:54 51°24.66 2°29.255 6.5 19 15.5 101410 82
2004-06-01 10:55 51°24.899 2°29.122 7.2 20 15.5 101410 82
2004-06-01 10:56 51°25.122 2°28.98 7.2 22 15.5 101410 82
2004-06-01 10:57 51°25.34 2°28.848 7.2 26 15.4 101410 82
2004-06-01 10:58 51°25.551 2°28.721 7.2 28 15.1 101410 83
2004-06-01 10:59 51°25.77 2°28.593 7.4 26 15 101410 84
2004-06-01 11:00 51°25.994 2°28.459 7.5 29 14.9 101410 84
2004-06-01 11:01 51°26.224 2°28.322 7.7 31 14.9 101410 84
2004-06-01 11:02 51°26.447 2°28.185 7.2 27 14.8 101410 84
2004-06-01 11:03 51°26.676 2°28.05 7.7 35 14.8 101410 85
2004-06-01 11:04 51°26.908 2°27.912 7.8 35 14.7 101410 85
2004-06-01 11:05 51°27.132 2°27.775 7.6 38 14.6 101410 86
2004-06-01 11:06 51°27.362 2°27.635 7 33 14.5 101420 86
2004-06-01 11:07 51°27.588 2°27.502 7.1 35 14.5 101420 87
2004-06-01 11:08 51°27.813 2°27.386 7.1 33 14.5 101420 87
2004-06-01 11:09 51°28.048 2°27.28 7.3 26 14.4 101420 87
2004-06-01 11:10 51°28.284 2°27.176 8 33 14.5 101420 87
2004-06-01 11:11 51°28.516 2°27.071 8.2 30 14.5 101420 87
2004-06-01 11:12 51°28.695 2°27.015 5 35 14.5 101430 87
2004-06-01 11:13 51°28.789 2°27.063 2.9 35 14.4 101440 87
2004-06-01 11:14 51°28.802 2°27.071 2.3 40 14.3 101450 87
2004-06-01 11:15 51°28.817 2°27.086 2.8 47 14.3 101450 88
2004-06-01 11:16 51°28.834 2°27.105 3 54 14.3 101440 88
2004-06-01 11:17 51°28.852 2°27.129 2.8 62 14.2 101440 88
2004-06-01 11:18 51°28.871 2°27.156 3.3 65 14.2 101440 88
2004-06-01 11:19 51°28.894 2°27.184 3.4 73 14.2 101440 89
2004-06-01 11:20 51°28.917 2°27.213 3.8 81 14.1 101440 89
2004-06-01 11:21 51°28.943 2°27.241 3.6 82 14.1 101450 89
2004-06-01 11:22 51°28.97 2°27.268 3.9 85 14.1 101440 89
2004-06-01 11:23 51°28.998 2°27.295 4 85 14.1 101440 90
2004-06-01 11:24 51°29.037 2°27.315 3.7 80 14.1 101450 90
2004-06-01 11:25 51°29.1 2°27.231 1.7 102 14.1 101450 90
2004-06-01 11:26 51°29.045 2°27.082 3.2 336 14.1 101450 90
2004-06-01 11:27 51°28.895 2°26.896 4.4 346 14.2 101440 91
2004-06-01 11:28 51°28.745 2°26.68 4.6 347 14.3 101450 91
2004-06-01 11:29 51°28.593 2°26.459 4.5 350 14.3 101450 90
2004-06-01 11:31 51°28.439 2°26.233 4.9 353 14.3 101450 90
2004-06-01 11:31 51°28.291 2°26.014 4.6 356 14.4 101450 90
2004-06-01 11:32 51°28.139 2°25.794 4.7 356 14.4 101460 90
2004-06-01 11:33 51°27.988 2°25.573 4.6 357 14.4 101460 90
2004-06-01 11:34 51°27.841 2°25.356 4.5 355 14.5 101450 90
2004-06-01 11:35 51°27.691 2°25.135 4.6 355 14.5 101450 89
2004-06-01 11:36 51°27.54 2°24.914 4.8 5 14.6 101460 89
2004-06-01 11:37 51°27.387 2°24.689 4.8 8 14.5 101460 89
2004-06-01 11:38 51°27.236 2°24.467 5 3 14.5 101460 89
2004-06-01 11:39 51°27.084 2°24.248 4.6 4 14.5 101460 89
2004-06-01 11:40 51°26.931 2°24.029 5.5 7 14.5 101460 88
2004-06-01 11:41 51°26.784 2°23.802 6 354 14.6 101460 88
2004-06-01 11:42 51°26.636 2°23.573 6.2 358 14.6 101460 88
2004-06-01 11:43 51°26.487 2°23.345 6.2   14.7 101460 87
2004-06-01 11:44 51°26.337 2°23.117 5.9 356 14.8 101460 86
2004-06-01 11:45 51°26.192 2°22.896 5.9 352 14.9 101460 86
2004-06-01 11:47 51°26.032 2°22.658 5.1 353 15 101450 85
2004-06-01 11:47 51°25.881 2°22.433 5.2 355 15 101450 85
2004-06-01 11:48 51°25.729 2°22.201 4.7 354 15 101450 84
2004-06-01 11:49 51°25.583 2°21.971 4.9 356 15 101450 84
2004-06-01 11:50 51°25.446 2°21.716 4.5 1 15 101450 84
2004-06-01 11:51 51°25.307 2°21.464 4.2 357 15 101440 84
2004-06-01 11:53 51°25.15 2°21.252 3.8 342 14.9 101450 84
2004-06-01 11:54 51°25.046 2°21.205 1.5 249 14.9 101440 85
2004-06-01 11:54 51°25.014 2°21.162 0.6 204 14.9 101440 85
2004-06-01 11:56 51°24.996 2°21.074 0.5 165 14.9 101440 85
2004-06-01 11:57 51°24.989 2°20.987 0.9 148 15 101430 85
2004-06-01 11:57 51°24.991 2°20.906 1.4 147 15 101430 85
2004-06-01 11:58 51°24.995 2°20.825 1.5 144 15 101430 85
2004-06-01 11:59 51°24.999 2°20.746 1.3 152 15 101430 85
2004-06-01 12:00 51°24.982 2°20.688 1.7 218 15 101440 85
2004-06-01 12:01 51°24.956 2°20.635 1.6 234 15 101440 85
2004-06-01 12:02 51°24.914 2°20.595 1.1 253 15 101440 85
2004-06-01 12:04 51°24.875 2°20.548 1.6 231 14.9 101440 84
2004-06-01 12:04 51°24.842 2°20.495 1.5 239 14.9 101440 84
2004-06-01 12:05 51°24.807 2°20.44 1.5 230 14.9 101430 84
2004-06-01 12:06 51°24.773 2°20.386 1.6 238 14.9 101430 84
2004-06-01 12:07 51°24.735 2°20.336 1.3 252 14.9 101430 84
2004-06-01 12:08 51°24.696 2°20.29 1.1 253 14.8 101430 84
2004-06-01 12:09 51°24.658 2°20.242 1.3 254 14.8 101430 84
2004-06-01 12:10 51°24.619 2°20.195 1.3 254 14.7 101430 85
2004-06-01 12:12 51°24.58 2°20.149 1.5 251 14.7 101430 85
2004-06-01 12:12 51°24.543 2°20.101 1.4 253 14.7 101430 85
2004-06-01 12:13 51°24.504 2°20.054 1.3 254 14.6 101430 85
2004-06-01 12:14 51°24.466 2°20.01 1.6 249 14.6 101430 85
2004-06-01 12:15 51°24.43 2°19.96 1.2 253 14.6 101420 85
2004-06-01 12:16 51°24.394 2°19.914 1.6 236 14.6 101430 86
2004-06-01 12:17 51°24.363 2°19.857 1.6 223 14.6 101430 86
2004-06-01 12:19 51°24.338 2°19.794 1.5 213 14.6 101430 86
2004-06-01 12:19 51°24.325 2°19.725 1.6 170 14.7 101430 86
2004-06-01 12:20 51°24.322 2°19.651 1.6 165 14.8 101430 86
2004-06-01 12:22 51°24.326 2°19.577 2.2 153 14.8 101440 85
2004-06-01 12:23 51°24.345 2°19.531 2.6 142 14.8 101440 85
2004-06-01 12:23 51°24.369 2°19.501 3.1 137 14.7 101440 85
2004-06-01 12:25 51°24.438 2°19.421 6.1 58 14.7 101440 85
2004-06-01 12:26 51°24.606 2°19.461 10 12 14.5 101430 86
2004-06-01 12:26 51°24.68 2°19.684 7.1 332 14.5 101430 86
2004-06-01 12:27 51°24.672 2°19.821 4.1 312 14.6 101440 86
2004-06-01 12:28 51°24.654 2°19.898 4.5 290 14.6 101450 86
2004-06-01 12:29 51°24.64 2°19.95 4.4 263 14.7 101450 86
2004-06-01 12:30 51°24.623 2°19.985 3.2 281 14.7 101450 86
2004-06-01 12:31 51°24.505 2°20.076 8.3 329 14.8 101440 86
2004-06-01 12:33 51°24.322 2°20.282 10 336 14.9 101430 85
2004-06-01 12:33 51°24.159 2°20.534 9.1 340 15 101420 85
2004-06-01 12:34 51°24.021 2°20.832 9.7 343 15 101420 84
2004-06-01 12:35 51°23.894 2°21.145 9.9 340 15 101430 84
2004-06-01 12:37 51°23.762 2°21.46 9.8 350 15 101420 84
2004-06-01 12:37 51°23.636 2°21.758 10.4 348 15.1 101420 84
2004-06-01 12:38 51°23.544 2°22.111 10.7 351 15 101420 83
2004-06-01 12:40 51°23.48 2°22.485 10.9 351 15 101420 84
2004-06-01 12:40 51°23.413 2°22.846 10.5 350 15 101420 84
2004-06-01 12:41 51°23.345 2°23.212 9.8 353 15 101430 84
2004-06-01 12:42 51°23.277 2°23.573 10.6 349 15 101430 83
2004-06-01 12:43 51°23.208 2°23.948 10.5 350 15.1 101420 83
2004-06-01 12:44 51°23.141 2°24.318 10.5 355 15.2 101420 83
2004-06-01 12:45 51°23.073 2°24.688 10.9 348 15.3 101430 82
2004-06-01 12:47 51°22.994 2°25.058 10.3 351 15.3 101430 82
2004-06-01 12:47 51°22.918 2°25.416 11.3 347 15.3 101420 82
2004-06-01 12:48 51°22.837 2°25.777 10.4 342 15.3 101420 82
2004-06-01 12:49 51°22.756 2°26.141 10.8 343 15.2 101420 82
2004-06-01 12:50 51°22.673 2°26.503 10.2 343 15.2 101420 83
2004-06-01 12:51 51°22.619 2°26.876 11.3 345 15.1 101420 84
2004-06-01 12:52 51°22.564 2°27.261 11.2 345 15 101420 84
2004-06-01 12:53 51°22.511 2°27.639 11.4 343 14.9 101410 85
2004-06-01 12:54 51°22.459 2°28.01 11.1 345 14.9 101420 85
2004-06-01 12:56 51°22.403 2°28.399 11.2 345 14.8 101420 85
2004-06-01 12:56 51°22.367 2°28.777 11.5 347 14.8 101410 86
2004-06-01 12:57 51°22.337 2°29.163 11.7 349 14.8 101420 86
2004-06-01 12:58 51°22.321 2°29.544 12 348 14.9 101410 86
2004-06-01 12:59 51°22.304 2°29.936 11.3 347 14.9 101410 86
2004-06-01 13:00 51°22.287 2°30.315 12.4 348 14.9 101410 86
2004-06-01 13:01 51°22.262 2°30.708 12 349 14.9 101410 86
2004-06-01 13:02 51°22.203 2°31.072 10.7 340 14.9 101410 86
2004-06-01 13:03 51°22.114 2°31.429 10.9 343 15 101420 86
2004-06-01 13:04 51°22.027 2°31.77 10 344 15 101420 86
2004-06-01 13:05 51°21.935 2°32.12 10.2 344 15.1 101420 86
2004-06-01 13:06 51°21.843 2°32.464 10.4 347 15.1 101420 86
2004-06-01 13:07 51°21.754 2°32.811 11 344 15.1 101410 86
2004-06-01 13:08 51°21.667 2°33.156 10.7 345 15.1 101420 86
2004-06-01 13:09 51°21.6 2°33.501 10.3 344 15.2 101420 86
2004-06-01 13:10 51°21.529 2°33.868 10.1 340 15.2 101420 86
2004-06-01 13:11 51°21.457 2°34.223 10.5 345 15.2 101420 86
2004-06-01 13:12 51°21.387 2°34.584 10.9 345 15.2 101420 86
2004-06-01 13:13 51°21.318 2°34.938 10 342 15.3 101410 86
2004-06-01 13:15 51°21.244 2°35.33 11 342 15.3 101420 86
2004-06-01 13:16 51°21.176 2°35.687 10 341 15.3 101410 86
2004-06-01 13:17 51°21.095 2°36.049 10.8 345 15.4 101410 86
2004-06-01 13:18 51°21.014 2°36.402 10.8 340 15.4 101420 86
2004-06-01 13:19 51°20.927 2°36.751 10.1 341 15.4 101410 86
2004-06-01 13:20 51°20.843 2°37.097 10.7 340 15.4 101420 86
2004-06-01 13:21 51°20.759 2°37.445 10.3 342 15.4 101410 86
2004-06-01 13:22 51°20.676 2°37.794 10.8 339 15.4 101410 86
2004-06-01 13:23 51°20.596 2°38.143 10.1 342 15.5 101410 86
2004-06-01 13:24 51°20.519 2°38.492 10.6 342 15.5 101410 86
2004-06-01 13:25 51°20.443 2°38.841 9.9 345 15.5 101420 86
2004-06-01 13:26 51°20.38 2°39.195 10.2 345 15.6 101420 86
2004-06-01 13:27 51°20.32 2°39.547 10.1 342 15.6 101420 86
2004-06-01 13:28 51°20.248 2°39.89 9.1 338 15.6 101430 86
2004-06-01 13:29 51°20.119 2°40.176 8.9 335 15.6 101430 86
2004-06-01 13:30 51°19.968 2°40.453 8.5 335 15.6 101440 85
2004-06-01 13:31 51°19.808 2°40.709 7.7 336 15.6 101440 85
2004-06-01 13:32 51°19.643 2°40.956 8.7 329 15.6 101440 85
2004-06-01 13:33 51°19.49 2°41.198 9 332 15.5 101440 85
2004-06-01 13:34 51°19.332 2°41.486 8 334 15.5 101440 86
2004-06-01 13:35 51°19.178 2°41.758 8 335 15.5 101440 86
2004-06-01 13:36 51°19.024 2°42.027 7.7 335 15.4 101440 86
2004-06-01 13:37 51°18.87 2°42.295 7.6 336 15.4 101440 87
2004-06-01 13:38 51°18.722 2°42.559 8.1 338 15.4 101440 87
2004-06-01 13:39 51°18.552 2°42.819 7.5 334 15.4 101440 87
2004-06-01 13:40 51°18.384 2°43.064 7.6 334 15.4 101440 87
2004-06-01 13:41 51°18.21 2°43.298 7.2 330 15.4 101440 87
2004-06-01 13:42 51°18.044 2°43.512 6.5 334 15.4 101440 87
2004-06-01 13:43 51°17.859 2°43.746 6.6 334 15.3 101450 88
2004-06-01 13:44 51°17.682 2°43.971 6.7 332 15.3 101440 88
2004-06-01 13:45 51°17.504 2°44.196 7 331 15.4 101450 88
2004-06-01 13:46 51°17.326 2°44.421 7.2 332 15.3 101450 88
2004-06-01 13:47 51°17.151 2°44.649 6.6 334 15.4 101450 88
2004-06-01 13:48 51°16.975 2°44.874 7 334 15.4 101450 88
2004-06-01 13:49 51°16.805 2°45.108 6.9 331 15.4 101450 88
2004-06-01 13:50 51°16.638 2°45.35 7.2 340 15.4 101450 88
2004-06-01 13:51 51°16.508 2°45.642 8.2 338 15.4 101450 88
2004-06-01 13:52 51°16.388 2°45.951 7.8 335 15.4 101450 88
2004-06-01 13:53 51°16.305 2°46.284 8.7 338 15.4 101450 88
2004-06-01 13:54 51°16.218 2°46.635 8.5 336 15.5 101440 88
2004-06-01 13:55 51°16.167 2°47.001 9 336 15.5 101440 88
2004-06-01 13:56 51°16.115 2°47.365 8.7 337 15.5 101440 87
2004-06-01 13:57 51°16.061 2°47.725 8.2 338 15.5 101440 86
2004-06-01 13:58 51°16.005 2°48.081 10 334 15.6 101440 85
2004-06-01 13:59 51°15.946 2°48.437 7.8 350 15.7 101440 84
2004-06-01 14:00 51°15.889 2°48.79 7.3 357 15.9 101440 83
2004-06-01 14:01 51°15.833 2°49.144 6.6 358 15.9 101450 83
2004-06-01 14:02 51°15.776 2°49.498 7.8 359 16 101440 83
2004-06-01 14:03 51°15.719 2°49.852 9.3 359 16 101440 82
2004-06-01 14:04 51°15.659 2°50.204 9.6 1 16.2 101440 82
2004-06-01 14:05 51°15.59 2°50.552 10.2 8 16.3 101440 80
2004-06-01 14:06 51°15.519 2°50.898 10.7 18 16.6 101440 77
2004-06-01 14:07 51°15.449 2°51.241 9.9 14 16.9 101430 73
2004-06-01 14:08 51°15.378 2°51.587 10.2 18 17.1 101430 71
2004-06-01 14:09 51°15.307 2°51.927 9.7 16 17.3 101430 70
2004-06-01 14:10 51°15.209 2°52.251 9.9 12 17.4 101440 69
2004-06-01 14:11 51°15.105 2°52.569 10.4 16 17.5 101430 68
2004-06-01 14:12 51°15.003 2°52.89 11.7 17 17.5 101430 68
2004-06-01 14:13 51°14.904 2°53.211 10.6 18 17.6 101440 66
2004-06-01 14:14 51°14.816 2°53.541 9.7 22 17.7 101440 66
2004-06-01 14:15 51°14.73 2°53.872 10.4 11 17.7 101430 66
2004-06-01 14:16 51°14.638 2°54.206 9.8 22 17.8 101430 65
2004-06-01 14:17 51°14.542 2°54.53 9.9 18 17.9 101440 65
2004-06-01 14:18 51°14.437 2°54.839 10.2 8 17.9 101430 65
2004-06-01 14:19 51°14.334 2°55.117 9.5 11 18 101440 65